sensor_id;sensor_type;location;lat;lon;timestamp;temperature;humidity
38860;DHT22;24609;48.316;16.174;2023-11-22T00:01:22;7.20;99.90
38860;DHT22;24609;48.316;16.174;2023-11-22T00:03:47;7.20;99.90
38860;DHT22;24609;48.316;16.174;2023-11-22T00:06:13;7.20;99.90
38860;DHT22;24609;48.316;16.174;2023-11-22T00:08:39;7.20;99.90
38860;DHT22;24609;48.316;16.174;2023-11-22T00:11:04;7.20;99.90
38860;DHT22;24609;48.316;16.174;2023-11-22T00:13:30;7.20;99.90
38860;DHT22;24609;48.316;16.174;2023-11-22T00:15:57;7.20;99.90
38860;DHT22;24609;48.316;16.174;2023-11-22T00:18:23;7.10;99.90
38860;DHT22;24609;48.316;16.174;2023-11-22T00:20:50;7.10;99.90
38860;DHT22;24609;48.316;16.174;2023-11-22T00:23:15;7.10;99.90
38860;DHT22;24609;48.316;16.174;2023-11-22T00:25:41;7.00;99.90
38860;DHT22;24609;48.316;16.174;2023-11-22T00:28:07;7.00;99.90
38860;DHT22;24609;48.316;16.174;2023-11-22T00:30:33;7.00;99.90
38860;DHT22;24609;48.316;16.174;2023-11-22T00:32:59;7.00;99.90
38860;DHT22;24609;48.316;16.174;2023-11-22T00:35:24;7.00;99.90
38860;DHT22;24609;48.316;16.174;2023-11-22T00:37:50;7.00;99.90
38860;DHT22;24609;48.316;16.174;2023-11-22T00:40:16;7.00;99.90
38860;DHT22;24609;48.316;16.174;2023-11-22T00:42:41;7.00;99.10
38860;DHT22;24609;48.316;16.174;2023-11-22T00:45:09;6.90;99.90
38860;DHT22;24609;48.316;16.174;2023-11-22T00:47:35;6.90;99.90
38860;DHT22;24609;48.316;16.174;2023-11-22T00:50:02;6.90;99.90
38860;DHT22;24609;48.316;16.174;2023-11-22T00:52:30;6.90;93.40
38860;DHT22;24609;48.316;16.174;2023-11-22T00:54:56;6.90;99.90
38860;DHT22;24609;48.316;16.174;2023-11-22T00:57:21;6.90;97.30
38860;DHT22;24609;48.316;16.174;2023-11-22T00:59:47;6.80;99.90
38860;DHT22;24609;48.316;16.174;2023-11-22T01:02:13;6.80;99.90
38860;DHT22;24609;48.316;16.174;2023-11-22T01:04:39;6.80;92.00
38860;DHT22;24609;48.316;16.174;2023-11-22T01:07:05;6.80;99.90
38860;DHT22;24609;48.316;16.174;2023-11-22T01:09:32;6.70;81.80
38860;DHT22;24609;48.316;16.174;2023-11-22T01:11:58;6.70;91.40
38860;DHT22;24609;48.316;16.174;2023-11-22T01:14:24;6.70;99.90
38860;DHT22;24609;48.316;16.174;2023-11-22T01:16:51;6.70;92.20
38860;DHT22;24609;48.316;16.174;2023-11-22T01:19:17;6.70;79.40
38860;DHT22;24609;48.316;16.174;2023-11-22T01:21:43;6.70;99.90
38860;DHT22;24609;48.316;16.174;2023-11-22T01:24:09;6.70;96.70
38860;DHT22;24609;48.316;16.174;2023-11-22T01:26:35;6.60;99.90
38860;DHT22;24609;48.316;16.174;2023-11-22T01:29:00;6.50;99.90
38860;DHT22;24609;48.316;16.174;2023-11-22T01:31:27;6.30;99.90
38860;DHT22;24609;48.316;16.174;2023-11-22T01:33:54;6.30;99.90
38860;DHT22;24609;48.316;16.174;2023-11-22T01:36:20;6.40;99.90
38860;DHT22;24609;48.316;16.174;2023-11-22T01:38:46;6.30;99.90
38860;DHT22;24609;48.316;16.174;2023-11-22T01:41:12;6.30;99.90
38860;DHT22;24609;48.316;16.174;2023-11-22T01:43:39;6.20;99.90
38860;DHT22;24609;48.316;16.174;2023-11-22T01:46:08;6.10;99.90
38860;DHT22;24609;48.316;16.174;2023-11-22T01:48:36;6.10;99.90
38860;DHT22;24609;48.316;16.174;2023-11-22T01:51:05;6.00;99.90
38860;DHT22;24609;48.316;16.174;2023-11-22T01:53:32;6.00;99.90
38860;DHT22;24609;48.316;16.174;2023-11-22T01:55:58;5.90;99.90
38860;DHT22;24609;48.316;16.174;2023-11-22T01:58:23;5.80;99.90
38860;DHT22;24609;48.316;16.174;2023-11-22T02:00:50;5.60;99.90
38860;DHT22;24609;48.316;16.174;2023-11-22T02:03:17;5.60;99.90
38860;DHT22;24609;48.316;16.174;2023-11-22T02:05:43;5.60;99.90
38860;DHT22;24609;48.316;16.174;2023-11-22T02:08:10;5.60;99.90
38860;DHT22;24609;48.316;16.174;2023-11-22T02:10:36;5.60;99.90
38860;DHT22;24609;48.316;16.174;2023-11-22T02:13:03;5.50;99.90
38860;DHT22;24609;48.316;16.174;2023-11-22T02:15:31;5.50;99.90
38860;DHT22;24609;48.316;16.174;2023-11-22T02:17:57;5.50;99.90
38860;DHT22;24609;48.316;16.174;2023-11-22T02:20:23;5.50;99.90
38860;DHT22;24609;48.316;16.174;2023-11-22T02:22:48;5.60;99.90
38860;DHT22;24609;48.316;16.174;2023-11-22T02:25:15;5.50;99.90
38860;DHT22;24609;48.316;16.174;2023-11-22T02:27:41;5.50;99.90
38860;DHT22;24609;48.316;16.174;2023-11-22T02:30:08;5.50;99.90
38860;DHT22;24609;48.316;16.174;2023-11-22T02:32:34;5.50;99.90
38860;DHT22;24609;48.316;16.174;2023-11-22T02:35:00;5.50;99.90
38860;DHT22;24609;48.316;16.174;2023-11-22T02:37:26;5.50;99.90
38860;DHT22;24609;48.316;16.174;2023-11-22T02:40:06;5.40;99.90
38860;DHT22;24609;48.316;16.174;2023-11-22T02:42:34;5.40;99.90
38860;DHT22;24609;48.316;16.174;2023-11-22T02:44:59;5.40;99.90
38860;DHT22;24609;48.316;16.174;2023-11-22T02:47:25;5.40;99.90
38860;DHT22;24609;48.316;16.174;2023-11-22T02:49:52;5.40;99.90
38860;DHT22;24609;48.316;16.174;2023-11-22T02:52:17;5.40;99.90
38860;DHT22;24609;48.316;16.174;2023-11-22T02:54:43;5.30;99.90
38860;DHT22;24609;48.316;16.174;2023-11-22T02:57:11;5.40;99.90
38860;DHT22;24609;48.316;16.174;2023-11-22T02:59:40;5.40;99.90
38860;DHT22;24609;48.316;16.174;2023-11-22T03:02:07;5.50;99.90
38860;DHT22;24609;48.316;16.174;2023-11-22T03:04:32;5.60;99.90
38860;DHT22;24609;48.316;16.174;2023-11-22T03:06:59;5.60;99.90
38860;DHT22;24609;48.316;16.174;2023-11-22T03:09:25;5.60;99.90
38860;DHT22;24609;48.316;16.174;2023-11-22T03:11:52;5.60;99.90
38860;DHT22;24609;48.316;16.174;2023-11-22T03:14:18;5.60;99.90
38860;DHT22;24609;48.316;16.174;2023-11-22T03:16:44;5.70;99.90
38860;DHT22;24609;48.316;16.174;2023-11-22T03:19:10;5.70;99.90
38860;DHT22;24609;48.316;16.174;2023-11-22T03:21:37;5.60;99.90
38860;DHT22;24609;48.316;16.174;2023-11-22T03:24:03;5.60;99.90
38860;DHT22;24609;48.316;16.174;2023-11-22T03:26:30;5.50;99.90
38860;DHT22;24609;48.316;16.174;2023-11-22T03:28:55;5.50;99.90
38860;DHT22;24609;48.316;16.174;2023-11-22T03:31:21;5.60;99.90
38860;DHT22;24609;48.316;16.174;2023-11-22T03:33:47;5.60;99.90
38860;DHT22;24609;48.316;16.174;2023-11-22T03:36:13;5.60;99.90
38860;DHT22;24609;48.316;16.174;2023-11-22T03:38:41;5.60;99.90
38860;DHT22;24609;48.316;16.174;2023-11-22T03:41:07;5.60;99.90
38860;DHT22;24609;48.316;16.174;2023-11-22T03:43:32;5.50;99.90
38860;DHT22;24609;48.316;16.174;2023-11-22T03:45:58;5.50;99.90
38860;DHT22;24609;48.316;16.174;2023-11-22T03:48:23;5.30;99.90
38860;DHT22;24609;48.316;16.174;2023-11-22T03:50:51;5.10;99.90
38860;DHT22;24609;48.316;16.174;2023-11-22T03:53:17;5.10;99.90
38860;DHT22;24609;48.316;16.174;2023-11-22T03:55:43;5.20;99.90
38860;DHT22;24609;48.316;16.174;2023-11-22T03:58:08;5.20;99.90
38860;DHT22;24609;48.316;16.174;2023-11-22T04:00:34;5.10;99.90
38860;DHT22;24609;48.316;16.174;2023-11-22T04:03:00;5.00;99.90
38860;DHT22;24609;48.316;16.174;2023-11-22T04:05:27;5.10;99.90
38860;DHT22;24609;48.316;16.174;2023-11-22T04:07:53;5.00;99.90
38860;DHT22;24609;48.316;16.174;2023-11-22T04:10:19;5.00;99.90
38860;DHT22;24609;48.316;16.174;2023-11-22T04:12:47;5.00;99.90
38860;DHT22;24609;48.316;16.174;2023-11-22T04:15:13;4.90;99.90
38860;DHT22;24609;48.316;16.174;2023-11-22T04:17:42;4.90;99.90
38860;DHT22;24609;48.316;16.174;2023-11-22T04:20:09;4.90;99.90
38860;DHT22;24609;48.316;16.174;2023-11-22T04:22:36;4.90;99.90
38860;DHT22;24609;48.316;16.174;2023-11-22T04:25:03;4.80;99.90
38860;DHT22;24609;48.316;16.174;2023-11-22T04:27:30;4.90;99.90
38860;DHT22;24609;48.316;16.174;2023-11-22T04:29:55;4.90;99.90
38860;DHT22;24609;48.316;16.174;2023-11-22T04:32:21;4.80;99.90
38860;DHT22;24609;48.316;16.174;2023-11-22T04:34:47;4.80;99.90
38860;DHT22;24609;48.316;16.174;2023-11-22T04:37:13;4.80;99.90
38860;DHT22;24609;48.316;16.174;2023-11-22T04:39:39;4.70;99.90
38860;DHT22;24609;48.316;16.174;2023-11-22T04:42:05;4.70;99.90
38860;DHT22;24609;48.316;16.174;2023-11-22T04:44:31;4.70;99.90
38860;DHT22;24609;48.316;16.174;2023-11-22T04:46:58;4.70;99.90
38860;DHT22;24609;48.316;16.174;2023-11-22T04:49:25;4.60;99.90
38860;DHT22;24609;48.316;16.174;2023-11-22T04:51:51;4.60;99.90
38860;DHT22;24609;48.316;16.174;2023-11-22T04:54:16;4.70;99.90
38860;DHT22;24609;48.316;16.174;2023-11-22T04:56:42;4.60;99.90
38860;DHT22;24609;48.316;16.174;2023-11-22T04:59:08;4.50;99.90
38860;DHT22;24609;48.316;16.174;2023-11-22T05:01:34;4.60;99.90
38860;DHT22;24609;48.316;16.174;2023-11-22T05:04:00;4.60;99.90
38860;DHT22;24609;48.316;16.174;2023-11-22T05:06:26;4.60;99.90
38860;DHT22;24609;48.316;16.174;2023-11-22T05:08:52;4.70;99.90
38860;DHT22;24609;48.316;16.174;2023-11-22T05:11:19;4.60;99.90
38860;DHT22;24609;48.316;16.174;2023-11-22T05:13:44;4.60;99.90
38860;DHT22;24609;48.316;16.174;2023-11-22T05:16:10;4.60;99.90
38860;DHT22;24609;48.316;16.174;2023-11-22T05:18:36;4.50;99.90
38860;DHT22;24609;48.316;16.174;2023-11-22T05:21:02;4.50;99.90
38860;DHT22;24609;48.316;16.174;2023-11-22T05:23:29;4.40;99.90
38860;DHT22;24609;48.316;16.174;2023-11-22T05:25:55;4.40;99.90
38860;DHT22;24609;48.316;16.174;2023-11-22T05:28:22;4.40;99.90
38860;DHT22;24609;48.316;16.174;2023-11-22T05:30:48;4.40;99.90
38860;DHT22;24609;48.316;16.174;2023-11-22T05:33:14;4.40;99.90
38860;DHT22;24609;48.316;16.174;2023-11-22T05:35:39;4.30;99.90
38860;DHT22;24609;48.316;16.174;2023-11-22T05:38:06;4.30;99.90
38860;DHT22;24609;48.316;16.174;2023-11-22T05:40:33;4.30;99.90
38860;DHT22;24609;48.316;16.174;2023-11-22T05:42:58;4.30;99.90
38860;DHT22;24609;48.316;16.174;2023-11-22T05:45:24;4.30;99.90
38860;DHT22;24609;48.316;16.174;2023-11-22T05:47:51;4.30;99.90
38860;DHT22;24609;48.316;16.174;2023-11-22T05:50:16;4.30;99.90
38860;DHT22;24609;48.316;16.174;2023-11-22T05:52:43;4.30;99.90
38860;DHT22;24609;48.316;16.174;2023-11-22T05:55:10;4.30;99.90
38860;DHT22;24609;48.316;16.174;2023-11-22T05:57:35;4.30;99.90
38860;DHT22;24609;48.316;16.174;2023-11-22T06:00:02;4.30;99.90
38860;DHT22;24609;48.316;16.174;2023-11-22T06:02:28;4.30;99.90
38860;DHT22;24609;48.316;16.174;2023-11-22T06:04:53;4.30;99.90
38860;DHT22;24609;48.316;16.174;2023-11-22T06:07:19;4.20;99.90
38860;DHT22;24609;48.316;16.174;2023-11-22T06:09:45;4.20;99.90
38860;DHT22;24609;48.316;16.174;2023-11-22T06:12:10;4.10;99.90
38860;DHT22;24609;48.316;16.174;2023-11-22T06:14:36;4.10;99.90
38860;DHT22;24609;48.316;16.174;2023-11-22T06:17:02;4.10;99.90
38860;DHT22;24609;48.316;16.174;2023-11-22T06:19:28;4.10;99.90
38860;DHT22;24609;48.316;16.174;2023-11-22T06:21:54;4.10;99.90
38860;DHT22;24609;48.316;16.174;2023-11-22T06:24:20;4.00;99.90
38860;DHT22;24609;48.316;16.174;2023-11-22T06:26:46;4.00;99.90
38860;DHT22;24609;48.316;16.174;2023-11-22T06:29:12;4.00;99.90
38860;DHT22;24609;48.316;16.174;2023-11-22T06:31:38;3.90;99.90
38860;DHT22;24609;48.316;16.174;2023-11-22T06:34:03;3.90;99.90
38860;DHT22;24609;48.316;16.174;2023-11-22T06:36:29;3.90;99.90
38860;DHT22;24609;48.316;16.174;2023-11-22T06:38:55;3.90;99.90
38860;DHT22;24609;48.316;16.174;2023-11-22T06:41:21;3.90;99.90
38860;DHT22;24609;48.316;16.174;2023-11-22T06:43:47;3.90;99.90
38860;DHT22;24609;48.316;16.174;2023-11-22T06:46:13;3.90;99.90
38860;DHT22;24609;48.316;16.174;2023-11-22T06:48:44;3.90;99.90
38860;DHT22;24609;48.316;16.174;2023-11-22T06:51:10;3.90;99.90
38860;DHT22;24609;48.316;16.174;2023-11-22T06:53:35;3.90;99.90
38860;DHT22;24609;48.316;16.174;2023-11-22T06:56:01;3.90;99.90
38860;DHT22;24609;48.316;16.174;2023-11-22T06:58:28;3.90;99.90
38860;DHT22;24609;48.316;16.174;2023-11-22T07:00:54;3.90;99.90
38860;DHT22;24609;48.316;16.174;2023-11-22T07:03:20;3.90;99.90
38860;DHT22;24609;48.316;16.174;2023-11-22T07:05:46;3.90;99.90
38860;DHT22;24609;48.316;16.174;2023-11-22T07:08:12;3.90;99.90
38860;DHT22;24609;48.316;16.174;2023-11-22T07:10:38;3.90;99.90
38860;DHT22;24609;48.316;16.174;2023-11-22T07:13:04;3.90;99.90
38860;DHT22;24609;48.316;16.174;2023-11-22T07:15:30;3.90;99.90
38860;DHT22;24609;48.316;16.174;2023-11-22T07:17:56;3.90;99.90
38860;DHT22;24609;48.316;16.174;2023-11-22T07:20:21;3.90;99.90
38860;DHT22;24609;48.316;16.174;2023-11-22T07:22:49;3.90;99.90
38860;DHT22;24609;48.316;16.174;2023-11-22T07:25:21;3.90;99.90
38860;DHT22;24609;48.316;16.174;2023-11-22T07:27:51;4.00;99.90
38860;DHT22;24609;48.316;16.174;2023-11-22T07:30:17;4.10;99.90
38860;DHT22;24609;48.316;16.174;2023-11-22T07:32:50;4.10;99.90
38860;DHT22;24609;48.316;16.174;2023-11-22T07:35:17;4.00;99.90
38860;DHT22;24609;48.316;16.174;2023-11-22T07:37:45;4.00;99.90
38860;DHT22;24609;48.316;16.174;2023-11-22T07:40:11;4.00;99.90
38860;DHT22;24609;48.316;16.174;2023-11-22T07:42:39;4.00;99.90
38860;DHT22;24609;48.316;16.174;2023-11-22T07:45:05;4.00;99.90
38860;DHT22;24609;48.316;16.174;2023-11-22T07:47:31;3.90;99.90
38860;DHT22;24609;48.316;16.174;2023-11-22T07:49:57;3.90;99.90
38860;DHT22;24609;48.316;16.174;2023-11-22T07:52:24;3.90;99.90
38860;DHT22;24609;48.316;16.174;2023-11-22T07:54:58;3.90;99.90
38860;DHT22;24609;48.316;16.174;2023-11-22T07:57:24;3.80;99.90
38860;DHT22;24609;48.316;16.174;2023-11-22T07:59:51;3.80;99.90
38860;DHT22;24609;48.316;16.174;2023-11-22T08:02:20;3.80;99.90
38860;DHT22;24609;48.316;16.174;2023-11-22T08:04:46;3.80;99.90
38860;DHT22;24609;48.316;16.174;2023-11-22T08:07:14;3.80;99.90
38860;DHT22;24609;48.316;16.174;2023-11-22T08:09:40;3.80;99.90
38860;DHT22;24609;48.316;16.174;2023-11-22T08:12:07;3.80;99.90
38860;DHT22;24609;48.316;16.174;2023-11-22T08:14:33;3.80;99.90
38860;DHT22;24609;48.316;16.174;2023-11-22T08:16:59;3.80;99.90
38860;DHT22;24609;48.316;16.174;2023-11-22T08:19:24;3.80;99.90
38860;DHT22;24609;48.316;16.174;2023-11-22T08:21:50;3.70;99.90
38860;DHT22;24609;48.316;16.174;2023-11-22T08:24:16;3.70;99.90
38860;DHT22;24609;48.316;16.174;2023-11-22T08:26:42;3.70;99.90
38860;DHT22;24609;48.316;16.174;2023-11-22T08:29:08;3.70;99.90
38860;DHT22;24609;48.316;16.174;2023-11-22T08:31:34;3.50;99.90
38860;DHT22;24609;48.316;16.174;2023-11-22T08:34:03;3.40;99.90
38860;DHT22;24609;48.316;16.174;2023-11-22T08:36:33;3.40;99.90
38860;DHT22;24609;48.316;16.174;2023-11-22T08:39:02;3.60;99.90
38860;DHT22;24609;48.316;16.174;2023-11-22T08:41:29;3.70;99.90
38860;DHT22;24609;48.316;16.174;2023-11-22T08:43:56;3.60;99.90
38860;DHT22;24609;48.316;16.174;2023-11-22T08:46:22;3.60;99.90
38860;DHT22;24609;48.316;16.174;2023-11-22T08:48:49;3.50;99.90
38860;DHT22;24609;48.316;16.174;2023-11-22T08:51:14;3.60;99.90
38860;DHT22;24609;48.316;16.174;2023-11-22T08:53:40;3.70;99.90
38860;DHT22;24609;48.316;16.174;2023-11-22T08:56:06;3.60;99.90
38860;DHT22;24609;48.316;16.174;2023-11-22T08:58:34;3.60;99.90
38860;DHT22;24609;48.316;16.174;2023-11-22T09:01:00;3.70;99.90
38860;DHT22;24609;48.316;16.174;2023-11-22T09:03:25;3.60;99.90
38860;DHT22;24609;48.316;16.174;2023-11-22T09:05:52;3.50;99.90
38860;DHT22;24609;48.316;16.174;2023-11-22T09:08:19;3.40;99.90
38860;DHT22;24609;48.316;16.174;2023-11-22T09:10:46;3.40;99.90
38860;DHT22;24609;48.316;16.174;2023-11-22T09:13:12;3.60;99.90
38860;DHT22;24609;48.316;16.174;2023-11-22T09:15:44;3.80;99.90
38860;DHT22;24609;48.316;16.174;2023-11-22T09:18:11;3.70;99.90
38860;DHT22;24609;48.316;16.174;2023-11-22T09:20:38;3.80;99.90
38860;DHT22;24609;48.316;16.174;2023-11-22T09:23:04;3.90;99.90
38860;DHT22;24609;48.316;16.174;2023-11-22T09:25:31;3.90;56.90
38860;DHT22;24609;48.316;16.174;2023-11-22T09:27:59;3.90;88.50
38860;DHT22;24609;48.316;16.174;2023-11-22T09:30:31;3.90;99.90
38860;DHT22;24609;48.316;16.174;2023-11-22T09:33:04;4.00;10.60
38860;DHT22;24609;48.316;16.174;2023-11-22T09:35:31;4.30;35.80
38860;DHT22;24609;48.316;16.174;2023-11-22T09:38:00;4.50;13.80
38860;DHT22;24609;48.316;16.174;2023-11-22T09:40:27;4.70;38.30
38860;DHT22;24609;48.316;16.174;2023-11-22T09:42:55;4.60;1.00
38860;DHT22;24609;48.316;16.174;2023-11-22T09:45:21;4.50;1.00
38860;DHT22;24609;48.316;16.174;2023-11-22T09:47:47;4.60;32.60
38860;DHT22;24609;48.316;16.174;2023-11-22T09:50:35;4.50;3.50
38860;DHT22;24609;48.316;16.174;2023-11-22T09:53:10;4.40;3.80
38860;DHT22;24609;48.316;16.174;2023-11-22T09:55:37;4.60;20.80
38860;DHT22;24609;48.316;16.174;2023-11-22T09:58:03;4.70;11.60
38860;DHT22;24609;48.316;16.174;2023-11-22T10:00:29;4.70;8.90
38860;DHT22;24609;48.316;16.174;2023-11-22T10:02:57;4.70;11.00
38860;DHT22;24609;48.316;16.174;2023-11-22T10:05:24;4.60;1.80
38860;DHT22;24609;48.316;16.174;2023-11-22T10:07:49;4.60;23.70
38860;DHT22;24609;48.316;16.174;2023-11-22T10:10:18;4.60;23.60
38860;DHT22;24609;48.316;16.174;2023-11-22T10:12:45;4.50;20.60
38860;DHT22;24609;48.316;16.174;2023-11-22T10:15:15;4.60;15.20
38860;DHT22;24609;48.316;16.174;2023-11-22T10:17:53;4.50;11.80
38860;DHT22;24609;48.316;16.174;2023-11-22T10:20:23;4.60;21.70
38860;DHT22;24609;48.316;16.174;2023-11-22T10:22:48;4.70;42.30
38860;DHT22;24609;48.316;16.174;2023-11-22T10:25:15;4.70;2.40
38860;DHT22;24609;48.316;16.174;2023-11-22T10:27:45;4.60;2.00
38860;DHT22;24609;48.316;16.174;2023-11-22T10:30:11;4.50;40.00
38860;DHT22;24609;48.316;16.174;2023-11-22T10:32:37;4.60;33.00
38860;DHT22;24609;48.316;16.174;2023-11-22T10:35:06;4.70;12.00
38860;DHT22;24609;48.316;16.174;2023-11-22T10:37:36;4.90;1.00
38860;DHT22;24609;48.316;16.174;2023-11-22T10:40:02;5.00;3.20
38860;DHT22;24609;48.316;16.174;2023-11-22T10:42:31;5.10;1.00
38860;DHT22;24609;48.316;16.174;2023-11-22T10:45:00;5.20;1.00
38860;DHT22;24609;48.316;16.174;2023-11-22T10:47:29;5.10;1.00
38860;DHT22;24609;48.316;16.174;2023-11-22T10:49:56;5.00;1.00
38860;DHT22;24609;48.316;16.174;2023-11-22T10:52:25;5.00;1.00
38860;DHT22;24609;48.316;16.174;2023-11-22T10:54:56;5.40;1.00
38860;DHT22;24609;48.316;16.174;2023-11-22T10:57:26;4.90;1.00
38860;DHT22;24609;48.316;16.174;2023-11-22T10:59:54;4.80;1.00
38860;DHT22;24609;48.316;16.174;2023-11-22T11:02:22;4.60;1.00
38860;DHT22;24609;48.316;16.174;2023-11-22T11:05:04;4.50;1.00
38860;DHT22;24609;48.316;16.174;2023-11-22T11:07:40;4.50;30.10
38860;DHT22;24609;48.316;16.174;2023-11-22T11:10:07;4.50;1.00
38860;DHT22;24609;48.316;16.174;2023-11-22T11:12:34;4.50;1.00
38860;DHT22;24609;48.316;16.174;2023-11-22T11:15:00;4.30;1.00
38860;DHT22;24609;48.316;16.174;2023-11-22T11:17:26;4.40;1.00
38860;DHT22;24609;48.316;16.174;2023-11-22T11:19:52;4.60;1.00
38860;DHT22;24609;48.316;16.174;2023-11-22T11:22:18;4.60;1.00
38860;DHT22;24609;48.316;16.174;2023-11-22T11:24:47;4.80;1.00
38860;DHT22;24609;48.316;16.174;2023-11-22T11:27:13;5.10;1.00
38860;DHT22;24609;48.316;16.174;2023-11-22T11:29:40;5.00;1.00
38860;DHT22;24609;48.316;16.174;2023-11-22T11:32:13;5.00;1.00
38860;DHT22;24609;48.316;16.174;2023-11-22T11:34:48;5.00;1.00
38860;DHT22;24609;48.316;16.174;2023-11-22T11:37:15;4.90;1.00
38860;DHT22;24609;48.316;16.174;2023-11-22T11:39:40;4.70;1.00
38860;DHT22;24609;48.316;16.174;2023-11-22T11:42:10;4.60;1.00
38860;DHT22;24609;48.316;16.174;2023-11-22T11:44:36;4.40;1.00
38860;DHT22;24609;48.316;16.174;2023-11-22T11:47:12;4.40;1.00
38860;DHT22;24609;48.316;16.174;2023-11-22T11:49:38;4.30;1.00
38860;DHT22;24609;48.316;16.174;2023-11-22T11:52:05;4.30;1.00
38860;DHT22;24609;48.316;16.174;2023-11-22T11:54:30;4.30;1.00
38860;DHT22;24609;48.316;16.174;2023-11-22T11:56:59;4.30;1.00
38860;DHT22;24609;48.316;16.174;2023-11-22T11:59:26;4.20;1.00
38860;DHT22;24609;48.316;16.174;2023-11-22T12:01:55;4.30;1.00
38860;DHT22;24609;48.316;16.174;2023-11-22T12:04:24;4.40;1.90
38860;DHT22;24609;48.316;16.174;2023-11-22T12:06:50;4.50;21.30
38860;DHT22;24609;48.316;16.174;2023-11-22T12:09:26;4.50;1.00
38860;DHT22;24609;48.316;16.174;2023-11-22T12:11:54;4.50;1.00
38860;DHT22;24609;48.316;16.174;2023-11-22T12:14:21;4.50;1.00
38860;DHT22;24609;48.316;16.174;2023-11-22T12:16:47;4.60;1.00
38860;DHT22;24609;48.316;16.174;2023-11-22T12:19:26;4.50;1.00
38860;DHT22;24609;48.316;16.174;2023-11-22T12:21:52;4.60;1.00
38860;DHT22;24609;48.316;16.174;2023-11-22T12:24:18;4.50;1.00
38860;DHT22;24609;48.316;16.174;2023-11-22T12:26:48;4.50;1.00
38860;DHT22;24609;48.316;16.174;2023-11-22T12:29:17;4.50;1.00
38860;DHT22;24609;48.316;16.174;2023-11-22T12:31:50;4.60;1.00
38860;DHT22;24609;48.316;16.174;2023-11-22T12:34:22;4.70;1.00
38860;DHT22;24609;48.316;16.174;2023-11-22T12:36:49;4.70;1.00
38860;DHT22;24609;48.316;16.174;2023-11-22T12:39:15;4.60;1.00
38860;DHT22;24609;48.316;16.174;2023-11-22T12:41:45;4.60;1.00
38860;DHT22;24609;48.316;16.174;2023-11-22T12:44:11;4.50;1.00
38860;DHT22;24609;48.316;16.174;2023-11-22T12:46:52;4.40;1.00
38860;DHT22;24609;48.316;16.174;2023-11-22T12:49:24;4.40;1.00
38860;DHT22;24609;48.316;16.174;2023-11-22T12:51:55;4.40;1.00
38860;DHT22;24609;48.316;16.174;2023-11-22T12:54:22;4.40;1.00
38860;DHT22;24609;48.316;16.174;2023-11-22T12:56:52;4.40;1.00
38860;DHT22;24609;48.316;16.174;2023-11-22T12:59:24;4.40;1.00
38860;DHT22;24609;48.316;16.174;2023-11-22T13:01:50;4.40;1.00
38860;DHT22;24609;48.316;16.174;2023-11-22T13:04:18;4.50;1.00
38860;DHT22;24609;48.316;16.174;2023-11-22T13:06:44;4.50;1.00
38860;DHT22;24609;48.316;16.174;2023-11-22T13:09:10;4.40;1.00
38860;DHT22;24609;48.316;16.174;2023-11-22T13:11:42;4.40;1.00
38860;DHT22;24609;48.316;16.174;2023-11-22T13:14:11;4.30;1.00
38860;DHT22;24609;48.316;16.174;2023-11-22T13:16:40;4.30;1.00
38860;DHT22;24609;48.316;16.174;2023-11-22T13:19:05;4.40;1.00
38860;DHT22;24609;48.316;16.174;2023-11-22T13:21:31;4.40;1.00
38860;DHT22;24609;48.316;16.174;2023-11-22T13:23:57;4.50;1.00
38860;DHT22;24609;48.316;16.174;2023-11-22T13:26:25;4.50;1.00
38860;DHT22;24609;48.316;16.174;2023-11-22T13:28:51;4.50;1.00
38860;DHT22;24609;48.316;16.174;2023-11-22T13:31:19;4.40;1.00
38860;DHT22;24609;48.316;16.174;2023-11-22T13:33:47;4.30;1.00
38860;DHT22;24609;48.316;16.174;2023-11-22T13:36:13;4.30;1.00
38860;DHT22;24609;48.316;16.174;2023-11-22T13:38:40;4.30;1.00
38860;DHT22;24609;48.316;16.174;2023-11-22T13:41:06;4.30;1.00
38860;DHT22;24609;48.316;16.174;2023-11-22T13:43:31;4.30;1.00
38860;DHT22;24609;48.316;16.174;2023-11-22T13:46:01;4.30;1.00
38860;DHT22;24609;48.316;16.174;2023-11-22T13:48:26;4.30;1.00
38860;DHT22;24609;48.316;16.174;2023-11-22T13:50:52;4.20;1.00
38860;DHT22;24609;48.316;16.174;2023-11-22T13:53:18;4.20;1.00
38860;DHT22;24609;48.316;16.174;2023-11-22T13:55:50;4.20;1.00
38860;DHT22;24609;48.316;16.174;2023-11-22T13:58:17;4.30;1.00
38860;DHT22;24609;48.316;16.174;2023-11-22T14:00:43;4.30;1.00
38860;DHT22;24609;48.316;16.174;2023-11-22T14:03:08;4.20;1.00
38860;DHT22;24609;48.316;16.174;2023-11-22T14:05:36;4.30;1.00
38860;DHT22;24609;48.316;16.174;2023-11-22T14:08:04;4.30;1.00
38860;DHT22;24609;48.316;16.174;2023-11-22T14:10:31;4.30;1.00
38860;DHT22;24609;48.316;16.174;2023-11-22T14:12:57;4.30;1.00
38860;DHT22;24609;48.316;16.174;2023-11-22T14:15:26;4.30;1.00
38860;DHT22;24609;48.316;16.174;2023-11-22T14:17:54;4.30;1.00
38860;DHT22;24609;48.316;16.174;2023-11-22T14:20:19;4.20;1.00
38860;DHT22;24609;48.316;16.174;2023-11-22T14:22:46;4.30;1.00
38860;DHT22;24609;48.316;16.174;2023-11-22T14:25:13;4.20;1.00
38860;DHT22;24609;48.316;16.174;2023-11-22T14:27:42;4.20;1.00
38860;DHT22;24609;48.316;16.174;2023-11-22T14:30:08;4.10;1.00
38860;DHT22;24609;48.316;16.174;2023-11-22T14:32:36;4.20;1.00
38860;DHT22;24609;48.316;16.174;2023-11-22T14:35:05;4.20;1.00
38860;DHT22;24609;48.316;16.174;2023-11-22T14:37:33;4.10;1.00
38860;DHT22;24609;48.316;16.174;2023-11-22T14:40:00;4.10;1.00
38860;DHT22;24609;48.316;16.174;2023-11-22T14:42:25;4.00;1.00
38860;DHT22;24609;48.316;16.174;2023-11-22T14:44:51;4.00;1.00
38860;DHT22;24609;48.316;16.174;2023-11-22T14:47:18;4.10;1.00
38860;DHT22;24609;48.316;16.174;2023-11-22T14:49:50;4.10;1.00
38860;DHT22;24609;48.316;16.174;2023-11-22T14:52:15;4.10;1.00
38860;DHT22;24609;48.316;16.174;2023-11-22T14:54:48;4.10;1.00
38860;DHT22;24609;48.316;16.174;2023-11-22T14:57:15;4.00;1.00
38860;DHT22;24609;48.316;16.174;2023-11-22T14:59:43;4.10;1.00
38860;DHT22;24609;48.316;16.174;2023-11-22T15:02:10;4.00;1.00
38860;DHT22;24609;48.316;16.174;2023-11-22T15:04:37;4.00;1.00
38860;DHT22;24609;48.316;16.174;2023-11-22T15:07:04;4.00;1.00
38860;DHT22;24609;48.316;16.174;2023-11-22T15:09:30;4.00;1.00
38860;DHT22;24609;48.316;16.174;2023-11-22T15:12:03;4.00;1.00
38860;DHT22;24609;48.316;16.174;2023-11-22T15:14:30;4.00;1.00
38860;DHT22;24609;48.316;16.174;2023-11-22T15:16:55;4.00;1.00
38860;DHT22;24609;48.316;16.174;2023-11-22T15:19:21;4.00;1.00
38860;DHT22;24609;48.316;16.174;2023-11-22T15:21:53;4.00;1.00
38860;DHT22;24609;48.316;16.174;2023-11-22T15:24:19;4.00;1.00
38860;DHT22;24609;48.316;16.174;2023-11-22T15:26:45;4.00;1.00
38860;DHT22;24609;48.316;16.174;2023-11-22T15:29:10;4.00;9.80
38860;DHT22;24609;48.316;16.174;2023-11-22T15:31:37;4.00;1.00
38860;DHT22;24609;48.316;16.174;2023-11-22T15:34:04;4.00;9.10